Terminal Aerodrome Forecast
Issued by NWS

Home | Current Version | Previous Version | Text Only | Print | Product List | Glossary On
Versions: 1 2 3 4 5 6 7 8 9 10 11 12 13 14 15
020
FTUS45 KFGZ 230146 AAA
TAFSEZ
TAF AMD
KSEZ 230146Z 2302/2324 16010G20KT P6SM BKN050
     FM231500 21010G20KT 3SM -SN BKN035 OVC050=

USA.gov is the U.S. government's official web portal to all federal, state and local government web resources and services.